createdAt,value
2024-04-21T00:08:22.136Z,8.05
2024-04-21T00:37:14.104Z,7.81
2024-04-21T01:06:21.929Z,7.78
2024-04-21T01:35:23.086Z,7.88
2024-04-21T02:04:30.471Z,8.01
2024-04-21T02:33:14.951Z,7.81
2024-04-21T03:02:01.249Z,7.76
2024-04-21T03:31:07.153Z,6.87
2024-04-21T04:00:17.288Z,7.25
2024-04-21T04:29:29.193Z,7.49
2024-04-21T04:58:40.240Z,7.73
2024-04-21T05:27:08.583Z,5.05
2024-04-21T05:56:22.504Z,5.51
2024-04-21T06:25:27.031Z,5.03
2024-04-21T06:54:54.466Z,5.68
2024-04-21T07:23:53.223Z,5.26
2024-04-21T07:52:57.450Z,5.55
2024-04-21T08:21:48.468Z,4.97
2024-04-21T08:50:59.073Z,6.05
2024-04-21T09:20:09.882Z,7.57
2024-04-21T09:49:38.773Z,9.65
2024-04-21T10:18:26.679Z,6.54
2024-04-21T10:47:30.210Z,7.48
2024-04-21T11:16:36.158Z,8.66
2024-04-21T11:45:43.950Z,10.18
2024-04-21T12:14:39.059Z,11.01
2024-04-21T12:43:50.851Z,9.25
2024-04-21T13:12:39.037Z,6.84
2024-04-21T13:41:17.664Z,8.08
2024-04-21T14:10:26.481Z,9.82
2024-04-21T14:39:28.757Z,9.01
2024-04-21T15:08:34.619Z,10.37
2024-04-21T15:37:23.583Z,10.4
2024-04-21T16:05:59.035Z,7.58
2024-04-21T16:35:06.632Z,8.27
2024-04-21T17:04:04.070Z,7.73
2024-04-21T17:32:45.753Z,6.3
2024-04-21T18:01:28.857Z,5.64
2024-04-21T18:30:16.021Z,4.97
2024-04-21T18:59:18.263Z,4.75
2024-04-21T19:28:29.396Z,4.71
2024-04-21T19:57:30.955Z,5.04
2024-04-21T20:26:30.055Z,4.79
2024-04-21T20:55:42.815Z,4.96
2024-04-21T21:24:06.383Z,5.05
2024-04-21T21:53:05.658Z,5.17
2024-04-21T22:22:13.235Z,5.36
2024-04-21T22:51:06.658Z,5.29
2024-04-21T23:20:14.080Z,5.55
2024-04-21T23:49:14.193Z,5.49
